sensor_id;sensor_type;location;lat;lon;timestamp;temperature;humidity
4828;DHT22;2428;48.732;9.148;2022-08-16T00:00:32;18.50;99.90
4828;DHT22;2428;48.732;9.148;2022-08-16T00:02:59;18.50;99.90
4828;DHT22;2428;48.732;9.148;2022-08-16T00:05:26;18.50;99.90
4828;DHT22;2428;48.732;9.148;2022-08-16T00:07:52;18.50;99.90
4828;DHT22;2428;48.732;9.148;2022-08-16T00:10:19;18.40;99.90
4828;DHT22;2428;48.732;9.148;2022-08-16T00:12:46;18.40;99.90
4828;DHT22;2428;48.732;9.148;2022-08-16T00:15:44;18.40;99.90
4828;DHT22;2428;48.732;9.148;2022-08-16T00:18:09;18.40;99.90
4828;DHT22;2428;48.732;9.148;2022-08-16T00:20:36;18.40;99.90
4828;DHT22;2428;48.732;9.148;2022-08-16T00:23:03;18.40;99.90
4828;DHT22;2428;48.732;9.148;2022-08-16T00:25:29;18.30;99.90
4828;DHT22;2428;48.732;9.148;2022-08-16T00:27:54;18.30;99.90
4828;DHT22;2428;48.732;9.148;2022-08-16T00:30:20;18.30;99.90
4828;DHT22;2428;48.732;9.148;2022-08-16T00:32:50;18.30;99.90
4828;DHT22;2428;48.732;9.148;2022-08-16T00:35:21;18.30;99.90
4828;DHT22;2428;48.732;9.148;2022-08-16T00:37:47;18.30;99.90
4828;DHT22;2428;48.732;9.148;2022-08-16T00:40:15;18.30;99.90
4828;DHT22;2428;48.732;9.148;2022-08-16T00:42:41;18.30;99.90
4828;DHT22;2428;48.732;9.148;2022-08-16T00:45:33;18.30;99.90
4828;DHT22;2428;48.732;9.148;2022-08-16T00:47:57;18.30;99.90
4828;DHT22;2428;48.732;9.148;2022-08-16T00:50:26;18.40;99.90
4828;DHT22;2428;48.732;9.148;2022-08-16T00:52:52;18.40;99.90
4828;DHT22;2428;48.732;9.148;2022-08-16T00:55:23;18.40;99.90
4828;DHT22;2428;48.732;9.148;2022-08-16T00:57:52;18.50;99.90
4828;DHT22;2428;48.732;9.148;2022-08-16T01:00:19;18.40;99.90
4828;DHT22;2428;48.732;9.148;2022-08-16T01:02:45;18.40;99.90
4828;DHT22;2428;48.732;9.148;2022-08-16T01:05:11;18.40;99.90
4828;DHT22;2428;48.732;9.148;2022-08-16T01:07:37;18.40;99.90
4828;DHT22;2428;48.732;9.148;2022-08-16T01:10:04;18.40;99.90
4828;DHT22;2428;48.732;9.148;2022-08-16T01:12:30;18.40;99.90
4828;DHT22;2428;48.732;9.148;2022-08-16T01:14:57;18.30;99.90
4828;DHT22;2428;48.732;9.148;2022-08-16T01:17:25;18.30;99.90
4828;DHT22;2428;48.732;9.148;2022-08-16T01:19:56;18.30;99.90
4828;DHT22;2428;48.732;9.148;2022-08-16T01:22:35;18.30;99.90
4828;DHT22;2428;48.732;9.148;2022-08-16T01:25:07;18.30;99.90
4828;DHT22;2428;48.732;9.148;2022-08-16T01:27:46;18.30;99.90
4828;DHT22;2428;48.732;9.148;2022-08-16T01:30:20;18.20;99.90
4828;DHT22;2428;48.732;9.148;2022-08-16T01:32:49;18.30;99.90
4828;DHT22;2428;48.732;9.148;2022-08-16T01:35:27;18.30;99.90
4828;DHT22;2428;48.732;9.148;2022-08-16T01:37:55;18.30;99.90
4828;DHT22;2428;48.732;9.148;2022-08-16T01:40:26;18.20;99.90
4828;DHT22;2428;48.732;9.148;2022-08-16T01:42:52;18.20;99.90
4828;DHT22;2428;48.732;9.148;2022-08-16T01:45:19;18.20;99.90
4828;DHT22;2428;48.732;9.148;2022-08-16T01:47:47;18.20;99.90
4828;DHT22;2428;48.732;9.148;2022-08-16T01:50:13;18.30;99.90
4828;DHT22;2428;48.732;9.148;2022-08-16T01:52:40;18.20;99.90
4828;DHT22;2428;48.732;9.148;2022-08-16T01:55:06;18.30;99.90
4828;DHT22;2428;48.732;9.148;2022-08-16T01:57:32;18.30;99.90
4828;DHT22;2428;48.732;9.148;2022-08-16T01:59:58;18.30;99.90
4828;DHT22;2428;48.732;9.148;2022-08-16T02:02:24;18.40;99.90
4828;DHT22;2428;48.732;9.148;2022-08-16T02:04:51;18.40;99.90
4828;DHT22;2428;48.732;9.148;2022-08-16T02:07:18;18.40;99.90
4828;DHT22;2428;48.732;9.148;2022-08-16T02:09:45;18.40;99.90
4828;DHT22;2428;48.732;9.148;2022-08-16T02:12:11;18.40;99.90
4828;DHT22;2428;48.732;9.148;2022-08-16T02:14:38;18.40;99.90
4828;DHT22;2428;48.732;9.148;2022-08-16T02:17:06;18.40;99.90
4828;DHT22;2428;48.732;9.148;2022-08-16T02:19:34;18.30;99.90
4828;DHT22;2428;48.732;9.148;2022-08-16T02:22:02;18.30;99.90
4828;DHT22;2428;48.732;9.148;2022-08-16T02:24:29;18.20;99.90
4828;DHT22;2428;48.732;9.148;2022-08-16T02:26:55;18.20;99.90
4828;DHT22;2428;48.732;9.148;2022-08-16T02:29:21;18.10;99.90
4828;DHT22;2428;48.732;9.148;2022-08-16T02:31:48;18.20;99.90
4828;DHT22;2428;48.732;9.148;2022-08-16T02:34:15;18.20;99.90
4828;DHT22;2428;48.732;9.148;2022-08-16T02:36:41;18.20;99.90
4828;DHT22;2428;48.732;9.148;2022-08-16T02:39:09;18.20;99.90
4828;DHT22;2428;48.732;9.148;2022-08-16T02:41:37;18.20;99.90
4828;DHT22;2428;48.732;9.148;2022-08-16T02:44:04;18.20;99.90
4828;DHT22;2428;48.732;9.148;2022-08-16T02:46:30;18.20;99.90
4828;DHT22;2428;48.732;9.148;2022-08-16T02:48:57;18.20;99.90
4828;DHT22;2428;48.732;9.148;2022-08-16T02:51:23;18.20;99.90
4828;DHT22;2428;48.732;9.148;2022-08-16T02:53:49;18.20;99.90
4828;DHT22;2428;48.732;9.148;2022-08-16T02:56:17;18.20;99.90
4828;DHT22;2428;48.732;9.148;2022-08-16T02:58:44;18.20;99.90
4828;DHT22;2428;48.732;9.148;2022-08-16T03:01:11;18.10;99.90
4828;DHT22;2428;48.732;9.148;2022-08-16T03:03:37;18.10;99.90
4828;DHT22;2428;48.732;9.148;2022-08-16T03:06:03;18.20;99.90
4828;DHT22;2428;48.732;9.148;2022-08-16T03:08:28;18.20;99.90
4828;DHT22;2428;48.732;9.148;2022-08-16T03:10:54;18.20;99.90
4828;DHT22;2428;48.732;9.148;2022-08-16T03:13:20;18.20;99.90
4828;DHT22;2428;48.732;9.148;2022-08-16T03:15:46;18.20;99.90
4828;DHT22;2428;48.732;9.148;2022-08-16T03:18:13;18.20;99.90
4828;DHT22;2428;48.732;9.148;2022-08-16T03:20:39;18.20;99.90
4828;DHT22;2428;48.732;9.148;2022-08-16T03:23:05;18.20;99.90
4828;DHT22;2428;48.732;9.148;2022-08-16T03:25:31;18.20;99.90
4828;DHT22;2428;48.732;9.148;2022-08-16T03:27:57;18.10;99.90
4828;DHT22;2428;48.732;9.148;2022-08-16T03:30:29;18.10;99.90
4828;DHT22;2428;48.732;9.148;2022-08-16T03:32:55;18.10;99.90
4828;DHT22;2428;48.732;9.148;2022-08-16T03:35:28;18.10;99.90
4828;DHT22;2428;48.732;9.148;2022-08-16T03:37:56;18.10;99.90
4828;DHT22;2428;48.732;9.148;2022-08-16T03:40:22;18.10;99.90
4828;DHT22;2428;48.732;9.148;2022-08-16T03:42:47;18.10;99.90
4828;DHT22;2428;48.732;9.148;2022-08-16T03:45:14;18.10;99.90
4828;DHT22;2428;48.732;9.148;2022-08-16T03:47:40;18.00;99.90
4828;DHT22;2428;48.732;9.148;2022-08-16T03:50:07;18.00;99.90
4828;DHT22;2428;48.732;9.148;2022-08-16T03:52:33;18.00;99.90
4828;DHT22;2428;48.732;9.148;2022-08-16T03:55:01;18.00;99.90
4828;DHT22;2428;48.732;9.148;2022-08-16T03:57:28;18.00;99.90
4828;DHT22;2428;48.732;9.148;2022-08-16T03:59:54;18.00;99.90
4828;DHT22;2428;48.732;9.148;2022-08-16T04:02:20;18.00;99.90
4828;DHT22;2428;48.732;9.148;2022-08-16T04:04:46;18.00;99.90
4828;DHT22;2428;48.732;9.148;2022-08-16T04:07:13;17.90;99.90
4828;DHT22;2428;48.732;9.148;2022-08-16T04:09:39;17.90;99.90
4828;DHT22;2428;48.732;9.148;2022-08-16T04:12:06;17.90;99.90
4828;DHT22;2428;48.732;9.148;2022-08-16T04:14:32;17.90;99.90
4828;DHT22;2428;48.732;9.148;2022-08-16T04:16:58;17.90;99.90
4828;DHT22;2428;48.732;9.148;2022-08-16T04:19:25;17.90;99.90
4828;DHT22;2428;48.732;9.148;2022-08-16T04:21:52;17.90;99.90
4828;DHT22;2428;48.732;9.148;2022-08-16T04:24:18;18.00;99.90
4828;DHT22;2428;48.732;9.148;2022-08-16T04:26:44;18.00;99.90
4828;DHT22;2428;48.732;9.148;2022-08-16T04:29:09;18.00;99.90
4828;DHT22;2428;48.732;9.148;2022-08-16T04:31:35;18.00;99.90
4828;DHT22;2428;48.732;9.148;2022-08-16T04:34:02;18.10;99.90
4828;DHT22;2428;48.732;9.148;2022-08-16T04:36:27;18.00;99.90
4828;DHT22;2428;48.732;9.148;2022-08-16T04:38:53;18.10;99.90
4828;DHT22;2428;48.732;9.148;2022-08-16T04:41:20;18.10;99.90
4828;DHT22;2428;48.732;9.148;2022-08-16T04:43:46;18.10;99.90
4828;DHT22;2428;48.732;9.148;2022-08-16T04:46:12;18.00;99.90
4828;DHT22;2428;48.732;9.148;2022-08-16T04:48:40;18.00;99.90
4828;DHT22;2428;48.732;9.148;2022-08-16T04:51:06;18.00;99.90
4828;DHT22;2428;48.732;9.148;2022-08-16T04:53:32;18.00;99.90
4828;DHT22;2428;48.732;9.148;2022-08-16T04:55:58;18.00;99.90
4828;DHT22;2428;48.732;9.148;2022-08-16T04:58:24;18.00;99.90
4828;DHT22;2428;48.732;9.148;2022-08-16T05:00:50;18.10;99.90
4828;DHT22;2428;48.732;9.148;2022-08-16T05:03:16;18.10;99.90
4828;DHT22;2428;48.732;9.148;2022-08-16T05:05:42;18.20;99.90
4828;DHT22;2428;48.732;9.148;2022-08-16T05:08:07;18.10;99.90
4828;DHT22;2428;48.732;9.148;2022-08-16T05:10:33;18.10;99.90
4828;DHT22;2428;48.732;9.148;2022-08-16T05:13:00;18.20;99.90
4828;DHT22;2428;48.732;9.148;2022-08-16T05:15:26;18.20;99.90
4828;DHT22;2428;48.732;9.148;2022-08-16T05:17:53;18.20;99.90
4828;DHT22;2428;48.732;9.148;2022-08-16T05:20:19;18.20;99.90
4828;DHT22;2428;48.732;9.148;2022-08-16T05:22:46;18.20;99.90
4828;DHT22;2428;48.732;9.148;2022-08-16T05:25:11;18.30;99.90
4828;DHT22;2428;48.732;9.148;2022-08-16T05:27:39;18.20;99.90
4828;DHT22;2428;48.732;9.148;2022-08-16T05:30:06;18.30;99.90
4828;DHT22;2428;48.732;9.148;2022-08-16T05:32:34;18.30;99.90
4828;DHT22;2428;48.732;9.148;2022-08-16T05:35:00;18.30;99.90
4828;DHT22;2428;48.732;9.148;2022-08-16T05:37:26;18.30;99.90
4828;DHT22;2428;48.732;9.148;2022-08-16T05:39:54;18.30;99.90
4828;DHT22;2428;48.732;9.148;2022-08-16T05:42:20;18.40;99.90
4828;DHT22;2428;48.732;9.148;2022-08-16T05:44:46;18.40;99.90
4828;DHT22;2428;48.732;9.148;2022-08-16T05:47:12;18.50;99.90
4828;DHT22;2428;48.732;9.148;2022-08-16T05:49:37;18.50;99.90
4828;DHT22;2428;48.732;9.148;2022-08-16T05:52:03;18.50;99.90
4828;DHT22;2428;48.732;9.148;2022-08-16T05:54:29;18.60;99.90
4828;DHT22;2428;48.732;9.148;2022-08-16T05:56:56;18.60;99.90
4828;DHT22;2428;48.732;9.148;2022-08-16T05:59:22;18.70;99.90
4828;DHT22;2428;48.732;9.148;2022-08-16T06:01:48;18.70;99.90
4828;DHT22;2428;48.732;9.148;2022-08-16T06:04:17;18.70;99.90
4828;DHT22;2428;48.732;9.148;2022-08-16T06:06:44;18.80;99.90
4828;DHT22;2428;48.732;9.148;2022-08-16T06:09:11;18.80;99.90
4828;DHT22;2428;48.732;9.148;2022-08-16T06:11:37;18.80;99.90
4828;DHT22;2428;48.732;9.148;2022-08-16T06:14:04;18.70;99.90
4828;DHT22;2428;48.732;9.148;2022-08-16T06:16:30;18.70;99.90
4828;DHT22;2428;48.732;9.148;2022-08-16T06:18:55;18.70;99.90
4828;DHT22;2428;48.732;9.148;2022-08-16T06:21:21;18.70;99.90
4828;DHT22;2428;48.732;9.148;2022-08-16T06:23:47;18.70;99.90
4828;DHT22;2428;48.732;9.148;2022-08-16T06:26:12;18.80;99.90
4828;DHT22;2428;48.732;9.148;2022-08-16T06:28:38;18.70;99.90
4828;DHT22;2428;48.732;9.148;2022-08-16T06:31:06;18.80;99.90
4828;DHT22;2428;48.732;9.148;2022-08-16T06:33:31;18.80;99.90
4828;DHT22;2428;48.732;9.148;2022-08-16T06:35:57;18.80;99.90
4828;DHT22;2428;48.732;9.148;2022-08-16T06:38:23;18.80;99.90
4828;DHT22;2428;48.732;9.148;2022-08-16T06:40:49;18.90;99.90
4828;DHT22;2428;48.732;9.148;2022-08-16T06:43:15;18.90;99.90
4828;DHT22;2428;48.732;9.148;2022-08-16T06:45:41;19.00;99.90
4828;DHT22;2428;48.732;9.148;2022-08-16T06:48:08;19.10;99.90
4828;DHT22;2428;48.732;9.148;2022-08-16T06:50:34;19.20;99.90
4828;DHT22;2428;48.732;9.148;2022-08-16T06:53:00;19.20;99.90
4828;DHT22;2428;48.732;9.148;2022-08-16T06:55:28;19.30;99.90
4828;DHT22;2428;48.732;9.148;2022-08-16T06:57:54;19.50;99.90
4828;DHT22;2428;48.732;9.148;2022-08-16T07:00:22;19.50;99.90
4828;DHT22;2428;48.732;9.148;2022-08-16T07:02:48;19.60;99.90
4828;DHT22;2428;48.732;9.148;2022-08-16T07:05:16;19.60;99.90
4828;DHT22;2428;48.732;9.148;2022-08-16T07:07:46;19.70;99.90
4828;DHT22;2428;48.732;9.148;2022-08-16T07:10:13;19.70;99.90
4828;DHT22;2428;48.732;9.148;2022-08-16T07:12:39;19.70;99.90
4828;DHT22;2428;48.732;9.148;2022-08-16T07:15:05;19.80;99.90
4828;DHT22;2428;48.732;9.148;2022-08-16T07:17:31;19.80;99.90
4828;DHT22;2428;48.732;9.148;2022-08-16T07:19:58;19.90;99.90
4828;DHT22;2428;48.732;9.148;2022-08-16T07:22:23;20.10;99.90
4828;DHT22;2428;48.732;9.148;2022-08-16T07:24:49;20.10;99.90
4828;DHT22;2428;48.732;9.148;2022-08-16T07:27:15;20.20;99.90
4828;DHT22;2428;48.732;9.148;2022-08-16T07:29:41;20.30;99.90
4828;DHT22;2428;48.732;9.148;2022-08-16T07:32:08;20.30;99.90
4828;DHT22;2428;48.732;9.148;2022-08-16T07:34:34;20.40;99.90
4828;DHT22;2428;48.732;9.148;2022-08-16T07:37:08;20.40;99.90
4828;DHT22;2428;48.732;9.148;2022-08-16T07:39:35;20.50;99.90
4828;DHT22;2428;48.732;9.148;2022-08-16T07:42:02;20.50;99.90
4828;DHT22;2428;48.732;9.148;2022-08-16T07:44:27;20.60;99.90
4828;DHT22;2428;48.732;9.148;2022-08-16T07:46:53;20.60;99.90
4828;DHT22;2428;48.732;9.148;2022-08-16T07:49:19;20.70;99.90
4828;DHT22;2428;48.732;9.148;2022-08-16T07:51:45;20.70;99.90
4828;DHT22;2428;48.732;9.148;2022-08-16T07:54:11;20.80;99.90
4828;DHT22;2428;48.732;9.148;2022-08-16T07:56:37;20.80;99.90
4828;DHT22;2428;48.732;9.148;2022-08-16T07:59:04;20.90;99.90
4828;DHT22;2428;48.732;9.148;2022-08-16T08:01:31;20.90;99.90
4828;DHT22;2428;48.732;9.148;2022-08-16T08:03:57;21.00;99.90
4828;DHT22;2428;48.732;9.148;2022-08-16T08:06:25;21.00;99.90
4828;DHT22;2428;48.732;9.148;2022-08-16T08:08:53;21.10;99.90
4828;DHT22;2428;48.732;9.148;2022-08-16T08:11:21;21.10;99.90
4828;DHT22;2428;48.732;9.148;2022-08-16T08:13:47;21.20;99.90
4828;DHT22;2428;48.732;9.148;2022-08-16T08:16:13;21.30;99.90
4828;DHT22;2428;48.732;9.148;2022-08-16T08:18:38;21.50;99.90
4828;DHT22;2428;48.732;9.148;2022-08-16T08:21:05;21.70;99.90
4828;DHT22;2428;48.732;9.148;2022-08-16T08:23:32;21.80;99.90
4828;DHT22;2428;48.732;9.148;2022-08-16T08:26:09;22.00;99.90
4828;DHT22;2428;48.732;9.148;2022-08-16T08:29:06;22.10;99.90
4828;DHT22;2428;48.732;9.148;2022-08-16T08:31:37;22.10;99.90
4828;DHT22;2428;48.732;9.148;2022-08-16T08:34:06;22.20;99.90
4828;DHT22;2428;48.732;9.148;2022-08-16T08:36:44;22.30;99.90
4828;DHT22;2428;48.732;9.148;2022-08-16T08:39:13;22.40;99.90
4828;DHT22;2428;48.732;9.148;2022-08-16T08:41:47;22.30;99.90
4828;DHT22;2428;48.732;9.148;2022-08-16T08:44:15;22.30;99.90
4828;DHT22;2428;48.732;9.148;2022-08-16T08:46:41;22.30;99.90
4828;DHT22;2428;48.732;9.148;2022-08-16T08:49:09;22.40;99.90
4828;DHT22;2428;48.732;9.148;2022-08-16T08:51:35;22.30;99.90
4828;DHT22;2428;48.732;9.148;2022-08-16T08:54:05;22.20;99.90
4828;DHT22;2428;48.732;9.148;2022-08-16T08:56:48;22.20;99.90
4828;DHT22;2428;48.732;9.148;2022-08-16T08:59:13;22.30;99.90
4828;DHT22;2428;48.732;9.148;2022-08-16T09:01:40;22.40;99.90
4828;DHT22;2428;48.732;9.148;2022-08-16T09:04:06;22.50;99.90
4828;DHT22;2428;48.732;9.148;2022-08-16T09:06:34;22.70;99.90
4828;DHT22;2428;48.732;9.148;2022-08-16T09:09:07;22.80;99.90
4828;DHT22;2428;48.732;9.148;2022-08-16T09:11:34;22.90;99.90
4828;DHT22;2428;48.732;9.148;2022-08-16T09:14:01;22.80;99.90
4828;DHT22;2428;48.732;9.148;2022-08-16T09:16:27;22.80;99.90
4828;DHT22;2428;48.732;9.148;2022-08-16T09:18:53;22.80;99.90
4828;DHT22;2428;48.732;9.148;2022-08-16T09:21:22;22.80;99.90
4828;DHT22;2428;48.732;9.148;2022-08-16T09:23:48;22.70;99.90
4828;DHT22;2428;48.732;9.148;2022-08-16T09:26:14;22.70;99.90
4828;DHT22;2428;48.732;9.148;2022-08-16T09:28:41;22.60;99.90
4828;DHT22;2428;48.732;9.148;2022-08-16T09:31:07;22.60;99.90
4828;DHT22;2428;48.732;9.148;2022-08-16T09:33:33;22.60;99.90
4828;DHT22;2428;48.732;9.148;2022-08-16T09:36:02;22.60;99.90
4828;DHT22;2428;48.732;9.148;2022-08-16T09:38:27;22.60;99.90
4828;DHT22;2428;48.732;9.148;2022-08-16T09:40:55;22.60;99.90
4828;DHT22;2428;48.732;9.148;2022-08-16T09:43:22;22.70;99.90
4828;DHT22;2428;48.732;9.148;2022-08-16T09:45:50;22.90;99.90
4828;DHT22;2428;48.732;9.148;2022-08-16T09:48:19;23.00;99.90
4828;DHT22;2428;48.732;9.148;2022-08-16T09:50:47;23.30;99.90
4828;DHT22;2428;48.732;9.148;2022-08-16T09:53:19;23.40;99.90
4828;DHT22;2428;48.732;9.148;2022-08-16T09:55:49;23.50;99.90
4828;DHT22;2428;48.732;9.148;2022-08-16T09:58:20;23.60;99.90
4828;DHT22;2428;48.732;9.148;2022-08-16T10:00:47;23.70;99.90
4828;DHT22;2428;48.732;9.148;2022-08-16T10:03:20;24.00;99.90
4828;DHT22;2428;48.732;9.148;2022-08-16T10:05:49;24.20;99.90
4828;DHT22;2428;48.732;9.148;2022-08-16T10:08:15;24.40;99.90
4828;DHT22;2428;48.732;9.148;2022-08-16T10:10:44;24.80;99.90
4828;DHT22;2428;48.732;9.148;2022-08-16T10:13:30;24.90;99.90
4828;DHT22;2428;48.732;9.148;2022-08-16T10:16:01;25.00;99.90
4828;DHT22;2428;48.732;9.148;2022-08-16T10:18:28;25.20;99.90
4828;DHT22;2428;48.732;9.148;2022-08-16T10:20:55;25.50;99.90
4828;DHT22;2428;48.732;9.148;2022-08-16T10:23:23;25.90;99.90
4828;DHT22;2428;48.732;9.148;2022-08-16T10:25:48;26.20;99.90
4828;DHT22;2428;48.732;9.148;2022-08-16T10:28:14;26.40;99.90
4828;DHT22;2428;48.732;9.148;2022-08-16T10:30:40;26.90;99.90
4828;DHT22;2428;48.732;9.148;2022-08-16T10:33:13;27.30;99.90
4828;DHT22;2428;48.732;9.148;2022-08-16T10:35:43;28.00;99.90
4828;DHT22;2428;48.732;9.148;2022-08-16T10:38:09;28.50;99.90
4828;DHT22;2428;48.732;9.148;2022-08-16T10:40:38;28.30;99.90
4828;DHT22;2428;48.732;9.148;2022-08-16T10:43:04;28.00;99.90
4828;DHT22;2428;48.732;9.148;2022-08-16T10:45:31;27.30;99.90
4828;DHT22;2428;48.732;9.148;2022-08-16T10:48:00;27.20;99.90
4828;DHT22;2428;48.732;9.148;2022-08-16T10:50:26;27.10;99.90
4828;DHT22;2428;48.732;9.148;2022-08-16T10:52:53;27.00;99.90
4828;DHT22;2428;48.732;9.148;2022-08-16T10:55:20;27.00;99.90
4828;DHT22;2428;48.732;9.148;2022-08-16T10:57:45;27.30;99.90
4828;DHT22;2428;48.732;9.148;2022-08-16T11:00:14;27.50;99.90
4828;DHT22;2428;48.732;9.148;2022-08-16T11:02:43;27.90;99.90
4828;DHT22;2428;48.732;9.148;2022-08-16T11:05:12;28.70;99.90
4828;DHT22;2428;48.732;9.148;2022-08-16T11:07:40;28.80;99.90
4828;DHT22;2428;48.732;9.148;2022-08-16T11:10:07;28.80;99.90
4828;DHT22;2428;48.732;9.148;2022-08-16T11:12:32;28.40;99.90
4828;DHT22;2428;48.732;9.148;2022-08-16T11:14:58;28.40;99.90
4828;DHT22;2428;48.732;9.148;2022-08-16T11:17:24;28.10;99.90
4828;DHT22;2428;48.732;9.148;2022-08-16T11:19:49;27.60;99.90
4828;DHT22;2428;48.732;9.148;2022-08-16T11:22:15;27.30;99.90
4828;DHT22;2428;48.732;9.148;2022-08-16T11:24:40;27.20;99.90
4828;DHT22;2428;48.732;9.148;2022-08-16T11:27:08;27.30;99.90
4828;DHT22;2428;48.732;9.148;2022-08-16T11:29:34;27.70;99.90
4828;DHT22;2428;48.732;9.148;2022-08-16T11:32:00;27.90;99.90
4828;DHT22;2428;48.732;9.148;2022-08-16T11:34:26;28.30;99.90
4828;DHT22;2428;48.732;9.148;2022-08-16T11:36:52;28.50;99.90
4828;DHT22;2428;48.732;9.148;2022-08-16T11:39:18;29.00;99.90
4828;DHT22;2428;48.732;9.148;2022-08-16T11:41:43;29.60;99.90
4828;DHT22;2428;48.732;9.148;2022-08-16T11:44:09;30.10;98.50
4828;DHT22;2428;48.732;9.148;2022-08-16T11:46:36;30.90;96.40
4828;DHT22;2428;48.732;9.148;2022-08-16T11:49:04;31.30;95.50
4828;DHT22;2428;48.732;9.148;2022-08-16T11:51:30;31.20;97.10
4828;DHT22;2428;48.732;9.148;2022-08-16T11:53:56;31.20;93.90
4828;DHT22;2428;48.732;9.148;2022-08-16T11:56:22;30.80;94.50
4828;DHT22;2428;48.732;9.148;2022-08-16T11:58:49;30.80;93.60
4828;DHT22;2428;48.732;9.148;2022-08-16T12:01:15;30.50;94.30
4828;DHT22;2428;48.732;9.148;2022-08-16T12:03:41;30.20;94.80
4828;DHT22;2428;48.732;9.148;2022-08-16T12:06:10;29.60;94.90
4828;DHT22;2428;48.732;9.148;2022-08-16T12:08:37;29.00;96.50
4828;DHT22;2428;48.732;9.148;2022-08-16T12:11:03;28.40;96.00
4828;DHT22;2428;48.732;9.148;2022-08-16T12:13:31;27.90;96.30
4828;DHT22;2428;48.732;9.148;2022-08-16T12:15:57;27.50;97.30
4828;DHT22;2428;48.732;9.148;2022-08-16T12:18:23;27.30;98.00
4828;DHT22;2428;48.732;9.148;2022-08-16T12:20:49;26.90;99.30
4828;DHT22;2428;48.732;9.148;2022-08-16T12:23:15;26.70;99.90
4828;DHT22;2428;48.732;9.148;2022-08-16T12:25:41;26.70;99.90
4828;DHT22;2428;48.732;9.148;2022-08-16T12:28:07;27.30;99.90
4828;DHT22;2428;48.732;9.148;2022-08-16T12:30:36;28.30;99.00
4828;DHT22;2428;48.732;9.148;2022-08-16T12:33:03;29.20;97.50
4828;DHT22;2428;48.732;9.148;2022-08-16T12:35:31;29.40;95.60
4828;DHT22;2428;48.732;9.148;2022-08-16T12:37:58;29.20;95.10
4828;DHT22;2428;48.732;9.148;2022-08-16T12:40:28;29.40;96.10
4828;DHT22;2428;48.732;9.148;2022-08-16T12:42:55;29.50;94.30
4828;DHT22;2428;48.732;9.148;2022-08-16T12:45:22;29.40;94.00
4828;DHT22;2428;48.732;9.148;2022-08-16T12:47:49;29.40;93.90
4828;DHT22;2428;48.732;9.148;2022-08-16T12:50:34;29.20;93.90
4828;DHT22;2428;48.732;9.148;2022-08-16T12:52:59;29.00;94.60
4828;DHT22;2428;48.732;9.148;2022-08-16T12:55:25;28.80;94.40
4828;DHT22;2428;48.732;9.148;2022-08-16T12:57:54;28.60;95.80
4828;DHT22;2428;48.732;9.148;2022-08-16T13:00:21;28.40;95.00
4828;DHT22;2428;48.732;9.148;2022-08-16T13:02:48;28.30;94.30
4828;DHT22;2428;48.732;9.148;2022-08-16T13:05:14;28.10;94.50
4828;DHT22;2428;48.732;9.148;2022-08-16T13:07:42;28.00;94.80
4828;DHT22;2428;48.732;9.148;2022-08-16T13:10:09;27.70;93.40
4828;DHT22;2428;48.732;9.148;2022-08-16T13:12:44;27.40;94.20
4828;DHT22;2428;48.732;9.148;2022-08-16T13:15:14;27.60;95.70
4828;DHT22;2428;48.732;9.148;2022-08-16T13:17:41;27.60;94.70
4828;DHT22;2428;48.732;9.148;2022-08-16T13:20:12;27.60;95.20
4828;DHT22;2428;48.732;9.148;2022-08-16T13:23:13;27.60;95.20
4828;DHT22;2428;48.732;9.148;2022-08-16T13:25:33;27.50;96.00
4828;DHT22;2428;48.732;9.148;2022-08-16T13:28:00;27.30;95.90
4828;DHT22;2428;48.732;9.148;2022-08-16T13:30:27;27.20;97.60
4828;DHT22;2428;48.732;9.148;2022-08-16T13:32:53;27.30;96.50
4828;DHT22;2428;48.732;9.148;2022-08-16T13:35:21;27.30;96.10
4828;DHT22;2428;48.732;9.148;2022-08-16T13:37:46;27.50;96.50
4828;DHT22;2428;48.732;9.148;2022-08-16T13:40:12;27.70;96.30
4828;DHT22;2428;48.732;9.148;2022-08-16T13:42:38;27.80;95.90
4828;DHT22;2428;48.732;9.148;2022-08-16T13:45:06;28.00;95.90
4828;DHT22;2428;48.732;9.148;2022-08-16T13:47:33;28.30;96.30
4828;DHT22;2428;48.732;9.148;2022-08-16T13:49:58;28.50;95.60
4828;DHT22;2428;48.732;9.148;2022-08-16T13:52:24;28.70;94.60
4828;DHT22;2428;48.732;9.148;2022-08-16T13:54:50;28.80;93.50
4828;DHT22;2428;48.732;9.148;2022-08-16T13:57:15;28.90;93.90
4828;DHT22;2428;48.732;9.148;2022-08-16T13:59:41;28.90;93.40
4828;DHT22;2428;48.732;9.148;2022-08-16T14:02:08;29.00;93.10
4828;DHT22;2428;48.732;9.148;2022-08-16T14:04:36;29.00;93.40
4828;DHT22;2428;48.732;9.148;2022-08-16T14:07:05;29.00;92.30
4828;DHT22;2428;48.732;9.148;2022-08-16T14:09:32;28.90;94.30
4828;DHT22;2428;48.732;9.148;2022-08-16T14:11:59;29.10;93.90
4828;DHT22;2428;48.732;9.148;2022-08-16T14:14:27;29.30;93.60
4828;DHT22;2428;48.732;9.148;2022-08-16T14:16:52;29.30;94.20
4828;DHT22;2428;48.732;9.148;2022-08-16T14:19:18;29.50;93.80
4828;DHT22;2428;48.732;9.148;2022-08-16T14:21:45;29.60;93.50
4828;DHT22;2428;48.732;9.148;2022-08-16T14:24:12;29.50;92.80
4828;DHT22;2428;48.732;9.148;2022-08-16T14:26:41;29.40;91.80
4828;DHT22;2428;48.732;9.148;2022-08-16T14:29:08;29.50;92.90
4828;DHT22;2428;48.732;9.148;2022-08-16T14:31:34;29.70;92.00
4828;DHT22;2428;48.732;9.148;2022-08-16T14:34:00;29.70;91.80
4828;DHT22;2428;48.732;9.148;2022-08-16T14:36:25;29.70;92.10
4828;DHT22;2428;48.732;9.148;2022-08-16T14:38:51;29.80;92.20
4828;DHT22;2428;48.732;9.148;2022-08-16T14:41:17;29.70;90.70
4828;DHT22;2428;48.732;9.148;2022-08-16T14:43:42;29.30;90.40
4828;DHT22;2428;48.732;9.148;2022-08-16T14:46:08;28.90;90.70
4828;DHT22;2428;48.732;9.148;2022-08-16T14:48:33;28.70;91.50
4828;DHT22;2428;48.732;9.148;2022-08-16T14:50:59;28.50;91.30
4828;DHT22;2428;48.732;9.148;2022-08-16T14:53:25;28.40;92.00
4828;DHT22;2428;48.732;9.148;2022-08-16T14:55:51;28.60;92.00
4828;DHT22;2428;48.732;9.148;2022-08-16T14:58:18;28.90;92.70
4828;DHT22;2428;48.732;9.148;2022-08-16T15:00:44;29.20;91.50
4828;DHT22;2428;48.732;9.148;2022-08-16T15:03:10;29.40;90.20
4828;DHT22;2428;48.732;9.148;2022-08-16T15:05:38;29.50;90.30
4828;DHT22;2428;48.732;9.148;2022-08-16T15:08:04;29.60;90.40
4828;DHT22;2428;48.732;9.148;2022-08-16T15:10:30;29.70;89.90
4828;DHT22;2428;48.732;9.148;2022-08-16T15:12:56;29.70;90.30
4828;DHT22;2428;48.732;9.148;2022-08-16T15:15:25;29.70;90.10
4828;DHT22;2428;48.732;9.148;2022-08-16T15:17:51;29.60;89.30
4828;DHT22;2428;48.732;9.148;2022-08-16T15:20:18;29.70;90.40
4828;DHT22;2428;48.732;9.148;2022-08-16T15:22:46;29.70;91.30
4828;DHT22;2428;48.732;9.148;2022-08-16T15:25:22;29.70;89.50
4828;DHT22;2428;48.732;9.148;2022-08-16T15:27:48;29.80;89.90
4828;DHT22;2428;48.732;9.148;2022-08-16T15:30:19;29.80;90.10
4828;DHT22;2428;48.732;9.148;2022-08-16T15:32:45;29.70;90.20
4828;DHT22;2428;48.732;9.148;2022-08-16T15:35:12;29.70;90.20
4828;DHT22;2428;48.732;9.148;2022-08-16T15:37:38;29.40;90.40
4828;DHT22;2428;48.732;9.148;2022-08-16T15:40:07;29.20;90.30
4828;DHT22;2428;48.732;9.148;2022-08-16T15:42:33;29.00;90.90
4828;DHT22;2428;48.732;9.148;2022-08-16T15:45:00;28.70;90.60
4828;DHT22;2428;48.732;9.148;2022-08-16T15:47:26;28.60;90.60
4828;DHT22;2428;48.732;9.148;2022-08-16T15:49:53;28.70;90.60
4828;DHT22;2428;48.732;9.148;2022-08-16T15:52:29;28.70;90.80
4828;DHT22;2428;48.732;9.148;2022-08-16T15:54:58;28.50;91.40
4828;DHT22;2428;48.732;9.148;2022-08-16T15:57:27;28.50;91.50
4828;DHT22;2428;48.732;9.148;2022-08-16T15:59:54;28.40;91.90
4828;DHT22;2428;48.732;9.148;2022-08-16T16:02:20;28.40;91.30